sensor_id;sensor_type;location;lat;lon;timestamp;P1;durP1;ratioP1;P2;durP2;ratioP2
48881;SDS011;57063;51.406;-2.402;2024-02-14T00:01:40;24.90;;;4.20;;
48881;SDS011;57063;51.406;-2.402;2024-02-14T00:04:08;18.70;;;3.70;;
48881;SDS011;57063;51.406;-2.402;2024-02-14T00:06:40;33.42;;;4.40;;
48881;SDS011;57063;51.406;-2.402;2024-02-14T00:09:07;21.23;;;3.17;;
48881;SDS011;57063;51.406;-2.402;2024-02-14T00:11:33;22.60;;;2.78;;
48881;SDS011;57063;51.406;-2.402;2024-02-14T00:14:02;30.23;;;4.15;;
48881;SDS011;57063;51.406;-2.402;2024-02-14T00:16:27;28.52;;;4.03;;
48881;SDS011;57063;51.406;-2.402;2024-02-14T00:18:56;33.75;;;5.25;;
48881;SDS011;57063;51.406;-2.402;2024-02-14T00:21:22;20.45;;;3.22;;
48881;SDS011;57063;51.406;-2.402;2024-02-14T00:24:00;29.02;;;4.43;;
48881;SDS011;57063;51.406;-2.402;2024-02-14T00:26:30;24.70;;;4.75;;
48881;SDS011;57063;51.406;-2.402;2024-02-14T00:29:01;36.30;;;5.82;;
48881;SDS011;57063;51.406;-2.402;2024-02-14T00:31:29;23.23;;;3.45;;
48881;SDS011;57063;51.406;-2.402;2024-02-14T00:33:56;24.73;;;3.75;;
48881;SDS011;57063;51.406;-2.402;2024-02-14T00:36:22;23.70;;;3.80;;
48881;SDS011;57063;51.406;-2.402;2024-02-14T00:38:48;26.40;;;3.83;;
48881;SDS011;57063;51.406;-2.402;2024-02-14T00:41:14;25.13;;;4.28;;
48881;SDS011;57063;51.406;-2.402;2024-02-14T00:43:43;30.50;;;3.83;;
48881;SDS011;57063;51.406;-2.402;2024-02-14T00:46:15;28.48;;;3.63;;
48881;SDS011;57063;51.406;-2.402;2024-02-14T00:48:43;34.80;;;3.90;;
48881;SDS011;57063;51.406;-2.402;2024-02-14T00:51:12;27.38;;;4.05;;
48881;SDS011;57063;51.406;-2.402;2024-02-14T00:53:39;30.58;;;4.00;;
48881;SDS011;57063;51.406;-2.402;2024-02-14T00:56:06;26.17;;;3.33;;
48881;SDS011;57063;51.406;-2.402;2024-02-14T00:58:32;17.10;;;3.42;;
48881;SDS011;57063;51.406;-2.402;2024-02-14T01:01:03;26.83;;;3.55;;
48881;SDS011;57063;51.406;-2.402;2024-02-14T01:03:35;28.65;;;3.88;;
48881;SDS011;57063;51.406;-2.402;2024-02-14T01:06:03;21.00;;;3.05;;
48881;SDS011;57063;51.406;-2.402;2024-02-14T01:08:31;24.35;;;3.63;;
48881;SDS011;57063;51.406;-2.402;2024-02-14T01:10:58;26.40;;;3.30;;
48881;SDS011;57063;51.406;-2.402;2024-02-14T01:13:24;20.83;;;3.17;;
48881;SDS011;57063;51.406;-2.402;2024-02-14T01:15:51;25.35;;;3.72;;
48881;SDS011;57063;51.406;-2.402;2024-02-14T01:18:18;13.73;;;2.83;;
48881;SDS011;57063;51.406;-2.402;2024-02-14T01:20:44;24.02;;;3.58;;
48881;SDS011;57063;51.406;-2.402;2024-02-14T01:23:10;33.42;;;3.83;;
48881;SDS011;57063;51.406;-2.402;2024-02-14T01:25:35;14.05;;;3.08;;
48881;SDS011;57063;51.406;-2.402;2024-02-14T01:28:05;31.88;;;3.42;;
48881;SDS011;57063;51.406;-2.402;2024-02-14T01:30:33;17.10;;;2.70;;
48881;SDS011;57063;51.406;-2.402;2024-02-14T01:32:58;20.30;;;2.75;;
48881;SDS011;57063;51.406;-2.402;2024-02-14T01:35:27;19.20;;;2.83;;
48881;SDS011;57063;51.406;-2.402;2024-02-14T01:37:55;19.00;;;2.45;;
48881;SDS011;57063;51.406;-2.402;2024-02-14T01:40:22;13.38;;;2.03;;
48881;SDS011;57063;51.406;-2.402;2024-02-14T01:42:50;15.40;;;2.67;;
48881;SDS011;57063;51.406;-2.402;2024-02-14T01:45:17;9.77;;;1.80;;
48881;SDS011;57063;51.406;-2.402;2024-02-14T01:47:44;13.77;;;2.50;;
48881;SDS011;57063;51.406;-2.402;2024-02-14T01:50:11;14.88;;;2.35;;
48881;SDS011;57063;51.406;-2.402;2024-02-14T01:52:38;19.38;;;2.78;;
48881;SDS011;57063;51.406;-2.402;2024-02-14T01:55:05;19.55;;;2.28;;
48881;SDS011;57063;51.406;-2.402;2024-02-14T01:57:33;16.63;;;2.20;;
48881;SDS011;57063;51.406;-2.402;2024-02-14T02:00:00;13.18;;;1.92;;
48881;SDS011;57063;51.406;-2.402;2024-02-14T02:02:33;12.65;;;1.98;;
48881;SDS011;57063;51.406;-2.402;2024-02-14T02:05:03;15.05;;;2.45;;
48881;SDS011;57063;51.406;-2.402;2024-02-14T02:07:31;16.02;;;1.33;;
48881;SDS011;57063;51.406;-2.402;2024-02-14T02:09:57;15.88;;;2.13;;
48881;SDS011;57063;51.406;-2.402;2024-02-14T02:13:00;10.13;;;1.48;;
48881;SDS011;57063;51.406;-2.402;2024-02-14T03:05:12;7.57;;;1.77;;
48881;SDS011;57063;51.406;-2.402;2024-02-14T03:07:46;8.88;;;1.15;;
48881;SDS011;57063;51.406;-2.402;2024-02-14T03:10:13;7.43;;;1.20;;
48881;SDS011;57063;51.406;-2.402;2024-02-14T03:12:39;9.32;;;1.33;;
48881;SDS011;57063;51.406;-2.402;2024-02-14T03:15:05;13.20;;;2.13;;
48881;SDS011;57063;51.406;-2.402;2024-02-14T03:17:31;7.85;;;1.48;;
48881;SDS011;57063;51.406;-2.402;2024-02-14T03:35:29;10.18;;;1.33;;
48881;SDS011;57063;51.406;-2.402;2024-02-14T03:37:55;12.38;;;2.33;;
48881;SDS011;57063;51.406;-2.402;2024-02-14T03:40:21;11.43;;;1.38;;
48881;SDS011;57063;51.406;-2.402;2024-02-14T03:42:47;12.93;;;2.20;;
48881;SDS011;57063;51.406;-2.402;2024-02-14T03:45:13;9.10;;;2.13;;
48881;SDS011;57063;51.406;-2.402;2024-02-14T03:47:39;13.60;;;2.25;;
48881;SDS011;57063;51.406;-2.402;2024-02-14T03:50:07;20.23;;;3.47;;
48881;SDS011;57063;51.406;-2.402;2024-02-14T03:52:33;17.67;;;2.45;;
48881;SDS011;57063;51.406;-2.402;2024-02-14T03:55:02;15.23;;;1.52;;
48881;SDS011;57063;51.406;-2.402;2024-02-14T03:57:28;13.52;;;2.13;;
48881;SDS011;57063;51.406;-2.402;2024-02-14T03:59:54;15.68;;;2.13;;
48881;SDS011;57063;51.406;-2.402;2024-02-14T04:02:21;14.23;;;1.85;;
48881;SDS011;57063;51.406;-2.402;2024-02-14T04:04:48;14.40;;;2.20;;
48881;SDS011;57063;51.406;-2.402;2024-02-14T04:07:14;21.98;;;3.08;;
48881;SDS011;57063;51.406;-2.402;2024-02-14T04:09:40;14.32;;;1.85;;
48881;SDS011;57063;51.406;-2.402;2024-02-14T04:12:06;14.13;;;1.88;;
48881;SDS011;57063;51.406;-2.402;2024-02-14T04:14:32;14.77;;;2.38;;
48881;SDS011;57063;51.406;-2.402;2024-02-14T04:16:57;21.88;;;3.67;;
48881;SDS011;57063;51.406;-2.402;2024-02-14T04:19:23;15.45;;;2.58;;
48881;SDS011;57063;51.406;-2.402;2024-02-14T04:21:49;17.90;;;2.08;;
48881;SDS011;57063;51.406;-2.402;2024-02-14T04:24:15;21.45;;;2.88;;
48881;SDS011;57063;51.406;-2.402;2024-02-14T04:26:41;18.38;;;3.22;;
48881;SDS011;57063;51.406;-2.402;2024-02-14T04:29:07;14.48;;;2.75;;
48881;SDS011;57063;51.406;-2.402;2024-02-14T04:31:33;24.65;;;2.90;;
48881;SDS011;57063;51.406;-2.402;2024-02-14T04:34:00;20.48;;;3.60;;
48881;SDS011;57063;51.406;-2.402;2024-02-14T04:36:25;19.52;;;3.50;;
48881;SDS011;57063;51.406;-2.402;2024-02-14T04:38:51;20.50;;;3.25;;
48881;SDS011;57063;51.406;-2.402;2024-02-14T04:41:17;10.98;;;2.15;;
48881;SDS011;57063;51.406;-2.402;2024-02-14T04:43:43;17.08;;;3.10;;
48881;SDS011;57063;51.406;-2.402;2024-02-14T04:46:09;14.95;;;2.80;;
48881;SDS011;57063;51.406;-2.402;2024-02-14T04:48:34;28.88;;;4.07;;
48881;SDS011;57063;51.406;-2.402;2024-02-14T04:51:02;17.65;;;2.78;;
48881;SDS011;57063;51.406;-2.402;2024-02-14T04:53:27;16.13;;;2.50;;
48881;SDS011;57063;51.406;-2.402;2024-02-14T04:55:53;20.27;;;2.90;;
48881;SDS011;57063;51.406;-2.402;2024-02-14T04:58:19;17.35;;;2.53;;
48881;SDS011;57063;51.406;-2.402;2024-02-14T05:00:45;16.33;;;2.58;;
48881;SDS011;57063;51.406;-2.402;2024-02-14T05:03:11;16.80;;;3.25;;
48881;SDS011;57063;51.406;-2.402;2024-02-14T05:05:37;11.98;;;2.05;;
48881;SDS011;57063;51.406;-2.402;2024-02-14T05:08:03;21.83;;;2.92;;
48881;SDS011;57063;51.406;-2.402;2024-02-14T05:10:31;5.63;;;1.35;;
48881;SDS011;57063;51.406;-2.402;2024-02-14T05:12:57;9.93;;;1.85;;
48881;SDS011;57063;51.406;-2.402;2024-02-14T05:15:23;10.50;;;1.83;;
48881;SDS011;57063;51.406;-2.402;2024-02-14T05:17:51;12.55;;;2.10;;
48881;SDS011;57063;51.406;-2.402;2024-02-14T05:20:17;13.75;;;2.85;;
48881;SDS011;57063;51.406;-2.402;2024-02-14T05:22:43;10.38;;;1.85;;
48881;SDS011;57063;51.406;-2.402;2024-02-14T05:25:09;12.23;;;1.65;;
48881;SDS011;57063;51.406;-2.402;2024-02-14T05:27:35;15.88;;;1.98;;
48881;SDS011;57063;51.406;-2.402;2024-02-14T05:30:04;10.60;;;1.90;;
48881;SDS011;57063;51.406;-2.402;2024-02-14T05:32:31;9.95;;;1.42;;
48881;SDS011;57063;51.406;-2.402;2024-02-14T05:34:57;12.07;;;1.45;;
48881;SDS011;57063;51.406;-2.402;2024-02-14T05:37:23;6.45;;;1.38;;
48881;SDS011;57063;51.406;-2.402;2024-02-14T05:39:48;10.90;;;1.55;;
48881;SDS011;57063;51.406;-2.402;2024-02-14T05:42:14;5.60;;;1.15;;
48881;SDS011;57063;51.406;-2.402;2024-02-14T05:44:41;6.40;;;1.23;;
48881;SDS011;57063;51.406;-2.402;2024-02-14T05:47:08;9.85;;;1.50;;
48881;SDS011;57063;51.406;-2.402;2024-02-14T05:49:34;6.07;;;1.08;;
48881;SDS011;57063;51.406;-2.402;2024-02-14T05:51:59;7.07;;;1.10;;
48881;SDS011;57063;51.406;-2.402;2024-02-14T05:54:25;9.70;;;1.35;;
48881;SDS011;57063;51.406;-2.402;2024-02-14T05:56:51;12.45;;;3.70;;
48881;SDS011;57063;51.406;-2.402;2024-02-14T05:59:17;5.15;;;1.17;;
48881;SDS011;57063;51.406;-2.402;2024-02-14T06:01:43;6.68;;;1.92;;
48881;SDS011;57063;51.406;-2.402;2024-02-14T06:04:08;5.82;;;1.40;;
48881;SDS011;57063;51.406;-2.402;2024-02-14T06:06:34;3.00;;;1.77;;
48881;SDS011;57063;51.406;-2.402;2024-02-14T06:09:00;5.55;;;0.80;;
48881;SDS011;57063;51.406;-2.402;2024-02-14T06:11:26;4.38;;;0.90;;
48881;SDS011;57063;51.406;-2.402;2024-02-14T06:13:51;4.95;;;1.17;;
48881;SDS011;57063;51.406;-2.402;2024-02-14T06:16:17;8.15;;;1.55;;
48881;SDS011;57063;51.406;-2.402;2024-02-14T06:18:43;2.50;;;1.20;;
48881;SDS011;57063;51.406;-2.402;2024-02-14T06:21:09;9.70;;;1.13;;
48881;SDS011;57063;51.406;-2.402;2024-02-14T06:23:34;2.22;;;1.20;;
48881;SDS011;57063;51.406;-2.402;2024-02-14T06:26:02;6.40;;;2.20;;
48881;SDS011;57063;51.406;-2.402;2024-02-14T06:28:29;9.05;;;2.20;;
48881;SDS011;57063;51.406;-2.402;2024-02-14T06:30:54;4.50;;;1.05;;
48881;SDS011;57063;51.406;-2.402;2024-02-14T06:33:20;3.80;;;1.20;;
48881;SDS011;57063;51.406;-2.402;2024-02-14T06:35:46;4.63;;;1.30;;
48881;SDS011;57063;51.406;-2.402;2024-02-14T06:38:12;6.28;;;1.55;;
48881;SDS011;57063;51.406;-2.402;2024-02-14T06:40:38;7.18;;;1.23;;
48881;SDS011;57063;51.406;-2.402;2024-02-14T06:43:05;7.07;;;1.48;;
48881;SDS011;57063;51.406;-2.402;2024-02-14T06:45:32;8.82;;;1.65;;
48881;SDS011;57063;51.406;-2.402;2024-02-14T06:47:58;7.93;;;1.27;;
48881;SDS011;57063;51.406;-2.402;2024-02-14T06:50:24;6.53;;;1.52;;
48881;SDS011;57063;51.406;-2.402;2024-02-14T06:52:51;5.10;;;1.15;;
48881;SDS011;57063;51.406;-2.402;2024-02-14T06:55:17;8.50;;;1.25;;
48881;SDS011;57063;51.406;-2.402;2024-02-14T06:57:43;4.13;;;1.00;;
48881;SDS011;57063;51.406;-2.402;2024-02-14T07:00:10;5.43;;;0.90;;
48881;SDS011;57063;51.406;-2.402;2024-02-14T07:02:37;6.00;;;0.77;;
48881;SDS011;57063;51.406;-2.402;2024-02-14T07:05:02;5.93;;;1.58;;
48881;SDS011;57063;51.406;-2.402;2024-02-14T07:07:28;11.18;;;1.40;;
48881;SDS011;57063;51.406;-2.402;2024-02-14T07:09:54;7.13;;;1.13;;
48881;SDS011;57063;51.406;-2.402;2024-02-14T07:12:21;4.80;;;1.27;;
48881;SDS011;57063;51.406;-2.402;2024-02-14T07:14:47;8.25;;;1.52;;
48881;SDS011;57063;51.406;-2.402;2024-02-14T07:17:14;5.97;;;0.88;;
48881;SDS011;57063;51.406;-2.402;2024-02-14T07:19:40;5.20;;;1.00;;
48881;SDS011;57063;51.406;-2.402;2024-02-14T07:22:14;5.93;;;1.00;;
48881;SDS011;57063;51.406;-2.402;2024-02-14T07:24:41;7.55;;;1.42;;
48881;SDS011;57063;51.406;-2.402;2024-02-14T07:27:11;6.72;;;1.30;;
48881;SDS011;57063;51.406;-2.402;2024-02-14T07:29:38;9.18;;;1.00;;
48881;SDS011;57063;51.406;-2.402;2024-02-14T07:32:04;9.82;;;1.27;;
48881;SDS011;57063;51.406;-2.402;2024-02-14T07:34:31;12.85;;;1.15;;
48881;SDS011;57063;51.406;-2.402;2024-02-14T07:36:56;8.73;;;1.50;;
48881;SDS011;57063;51.406;-2.402;2024-02-14T07:39:22;5.78;;;0.98;;
48881;SDS011;57063;51.406;-2.402;2024-02-14T07:41:47;6.22;;;1.75;;
48881;SDS011;57063;51.406;-2.402;2024-02-14T07:44:13;11.02;;;1.25;;
48881;SDS011;57063;51.406;-2.402;2024-02-14T07:46:38;6.20;;;1.08;;
48881;SDS011;57063;51.406;-2.402;2024-02-14T07:49:04;3.53;;;0.80;;
48881;SDS011;57063;51.406;-2.402;2024-02-14T07:51:30;3.55;;;0.80;;
48881;SDS011;57063;51.406;-2.402;2024-02-14T07:54:01;5.07;;;0.70;;
48881;SDS011;57063;51.406;-2.402;2024-02-14T07:56:29;6.57;;;0.80;;
48881;SDS011;57063;51.406;-2.402;2024-02-14T07:58:55;4.30;;;0.50;;
48881;SDS011;57063;51.406;-2.402;2024-02-14T08:01:20;2.95;;;0.63;;
48881;SDS011;57063;51.406;-2.402;2024-02-14T08:03:46;4.22;;;0.65;;
48881;SDS011;57063;51.406;-2.402;2024-02-14T08:06:11;2.03;;;0.30;;
48881;SDS011;57063;51.406;-2.402;2024-02-14T08:08:37;3.53;;;0.70;;
48881;SDS011;57063;51.406;-2.402;2024-02-14T08:11:03;2.22;;;0.40;;
48881;SDS011;57063;51.406;-2.402;2024-02-14T08:13:28;1.90;;;0.98;;
48881;SDS011;57063;51.406;-2.402;2024-02-14T08:15:54;1.08;;;0.40;;
48881;SDS011;57063;51.406;-2.402;2024-02-14T08:18:19;3.65;;;0.57;;
48881;SDS011;57063;51.406;-2.402;2024-02-14T08:20:45;1.02;;;0.60;;
48881;SDS011;57063;51.406;-2.402;2024-02-14T08:23:10;1.33;;;0.55;;
48881;SDS011;57063;51.406;-2.402;2024-02-14T08:25:36;2.95;;;0.77;;
48881;SDS011;57063;51.406;-2.402;2024-02-14T08:28:02;3.05;;;0.80;;
48881;SDS011;57063;51.406;-2.402;2024-02-14T08:30:27;3.92;;;0.75;;
48881;SDS011;57063;51.406;-2.402;2024-02-14T08:32:53;4.28;;;0.80;;
48881;SDS011;57063;51.406;-2.402;2024-02-14T08:35:19;3.45;;;1.65;;
48881;SDS011;57063;51.406;-2.402;2024-02-14T08:37:46;5.50;;;1.27;;
48881;SDS011;57063;51.406;-2.402;2024-02-14T08:40:12;2.40;;;0.98;;
48881;SDS011;57063;51.406;-2.402;2024-02-14T08:42:37;3.50;;;0.90;;
48881;SDS011;57063;51.406;-2.402;2024-02-14T08:45:03;6.45;;;1.02;;
48881;SDS011;57063;51.406;-2.402;2024-02-14T08:47:29;2.90;;;0.90;;
48881;SDS011;57063;51.406;-2.402;2024-02-14T08:49:55;3.80;;;0.90;;
48881;SDS011;57063;51.406;-2.402;2024-02-14T08:52:21;2.30;;;0.90;;
48881;SDS011;57063;51.406;-2.402;2024-02-14T08:54:46;4.65;;;1.13;;
48881;SDS011;57063;51.406;-2.402;2024-02-14T08:57:12;5.40;;;1.30;;
48881;SDS011;57063;51.406;-2.402;2024-02-14T08:59:38;2.95;;;0.70;;
48881;SDS011;57063;51.406;-2.402;2024-02-14T09:02:03;4.05;;;0.60;;
48881;SDS011;57063;51.406;-2.402;2024-02-14T09:04:30;2.25;;;0.75;;
48881;SDS011;57063;51.406;-2.402;2024-02-14T09:06:56;3.00;;;0.90;;
48881;SDS011;57063;51.406;-2.402;2024-02-14T09:09:22;3.42;;;1.05;;
48881;SDS011;57063;51.406;-2.402;2024-02-14T09:11:48;1.75;;;0.50;;
48881;SDS011;57063;51.406;-2.402;2024-02-14T09:14:13;0.73;;;0.47;;
48881;SDS011;57063;51.406;-2.402;2024-02-14T09:16:39;1.40;;;0.50;;
48881;SDS011;57063;51.406;-2.402;2024-02-14T09:21:40;2.70;;;0.50;;
48881;SDS011;57063;51.406;-2.402;2024-02-14T09:24:06;1.55;;;0.50;;
48881;SDS011;57063;51.406;-2.402;2024-02-14T09:26:31;3.38;;;0.88;;
48881;SDS011;57063;51.406;-2.402;2024-02-14T09:28:58;1.88;;;0.55;;
48881;SDS011;57063;51.406;-2.402;2024-02-14T09:31:24;3.95;;;0.80;;
48881;SDS011;57063;51.406;-2.402;2024-02-14T09:33:50;2.88;;;0.35;;
48881;SDS011;57063;51.406;-2.402;2024-02-14T09:36:15;3.35;;;0.50;;
48881;SDS011;57063;51.406;-2.402;2024-02-14T09:38:41;2.45;;;0.43;;
48881;SDS011;57063;51.406;-2.402;2024-02-14T09:43:55;4.47;;;0.50;;
48881;SDS011;57063;51.406;-2.402;2024-02-14T09:46:21;3.35;;;0.43;;
48881;SDS011;57063;51.406;-2.402;2024-02-14T09:48:52;3.87;;;0.70;;
48881;SDS011;57063;51.406;-2.402;2024-02-14T09:59:04;2.83;;;0.40;;
48881;SDS011;57063;51.406;-2.402;2024-02-14T10:01:31;3.92;;;0.45;;
48881;SDS011;57063;51.406;-2.402;2024-02-14T10:03:57;4.35;;;0.60;;
48881;SDS011;57063;51.406;-2.402;2024-02-14T10:06:22;9.55;;;0.70;;
48881;SDS011;57063;51.406;-2.402;2024-02-14T10:08:51;3.40;;;0.57;;
48881;SDS011;57063;51.406;-2.402;2024-02-14T10:11:19;3.38;;;0.70;;
48881;SDS011;57063;51.406;-2.402;2024-02-14T10:13:49;3.65;;;0.57;;
48881;SDS011;57063;51.406;-2.402;2024-02-14T10:16:16;6.60;;;0.68;;
48881;SDS011;57063;51.406;-2.402;2024-02-14T10:18:44;3.10;;;0.52;;
48881;SDS011;57063;51.406;-2.402;2024-02-14T10:21:14;3.33;;;0.43;;
48881;SDS011;57063;51.406;-2.402;2024-02-14T10:23:42;4.28;;;0.73;;
48881;SDS011;57063;51.406;-2.402;2024-02-14T10:26:08;2.03;;;0.47;;
48881;SDS011;57063;51.406;-2.402;2024-02-14T10:28:35;5.70;;;0.80;;
48881;SDS011;57063;51.406;-2.402;2024-02-14T10:33:41;3.00;;;0.70;;
48881;SDS011;57063;51.406;-2.402;2024-02-14T10:36:07;4.72;;;1.50;;
48881;SDS011;57063;51.406;-2.402;2024-02-14T10:38:35;5.70;;;0.93;;
48881;SDS011;57063;51.406;-2.402;2024-02-14T10:41:05;3.42;;;0.82;;
48881;SDS011;57063;51.406;-2.402;2024-02-14T10:43:32;5.72;;;0.85;;
48881;SDS011;57063;51.406;-2.402;2024-02-14T10:46:00;6.80;;;1.85;;
48881;SDS011;57063;51.406;-2.402;2024-02-14T10:48:37;6.07;;;1.05;;
48881;SDS011;57063;51.406;-2.402;2024-02-14T10:51:10;3.35;;;0.60;;
48881;SDS011;57063;51.406;-2.402;2024-02-14T10:53:45;4.47;;;0.90;;
48881;SDS011;57063;51.406;-2.402;2024-02-14T10:56:24;6.22;;;1.25;;
48881;SDS011;57063;51.406;-2.402;2024-02-14T10:59:09;5.35;;;1.05;;
48881;SDS011;57063;51.406;-2.402;2024-02-14T11:01:41;7.20;;;0.85;;
48881;SDS011;57063;51.406;-2.402;2024-02-14T11:04:11;2.85;;;0.32;;
48881;SDS011;57063;51.406;-2.402;2024-02-14T11:06:52;6.03;;;1.45;;
48881;SDS011;57063;51.406;-2.402;2024-02-14T11:09:31;2.43;;;0.50;;
48881;SDS011;57063;51.406;-2.402;2024-02-14T11:12:07;4.60;;;1.10;;
48881;SDS011;57063;51.406;-2.402;2024-02-14T11:14:38;2.85;;;0.68;;
48881;SDS011;57063;51.406;-2.402;2024-02-14T11:17:09;3.45;;;0.60;;
48881;SDS011;57063;51.406;-2.402;2024-02-14T11:19:37;6.38;;;0.90;;
48881;SDS011;57063;51.406;-2.402;2024-02-14T11:22:17;6.15;;;0.80;;
48881;SDS011;57063;51.406;-2.402;2024-02-14T11:24:45;2.13;;;0.50;;
48881;SDS011;57063;51.406;-2.402;2024-02-14T11:27:21;5.72;;;0.90;;
48881;SDS011;57063;51.406;-2.402;2024-02-14T11:29:54;6.75;;;0.90;;
48881;SDS011;57063;51.406;-2.402;2024-02-14T11:32:21;5.05;;;0.85;;
48881;SDS011;57063;51.406;-2.402;2024-02-14T11:34:56;5.30;;;0.98;;
48881;SDS011;57063;51.406;-2.402;2024-02-14T11:37:29;6.97;;;0.82;;
48881;SDS011;57063;51.406;-2.402;2024-02-14T11:40:00;6.20;;;1.02;;
48881;SDS011;57063;51.406;-2.402;2024-02-14T11:42:27;8.27;;;1.63;;
48881;SDS011;57063;51.406;-2.402;2024-02-14T11:44:54;6.90;;;0.80;;
48881;SDS011;57063;51.406;-2.402;2024-02-14T11:47:32;4.30;;;1.15;;
48881;SDS011;57063;51.406;-2.402;2024-02-14T11:50:00;8.52;;;1.08;;
48881;SDS011;57063;51.406;-2.402;2024-02-14T11:52:32;6.43;;;0.80;;
48881;SDS011;57063;51.406;-2.402;2024-02-14T11:54:58;7.25;;;0.80;;
48881;SDS011;57063;51.406;-2.402;2024-02-14T11:57:25;9.00;;;1.25;;
48881;SDS011;57063;51.406;-2.402;2024-02-14T11:59:57;3.30;;;0.80;;
48881;SDS011;57063;51.406;-2.402;2024-02-14T12:02:23;6.32;;;1.00;;
48881;SDS011;57063;51.406;-2.402;2024-02-14T12:04:57;2.47;;;0.55;;
48881;SDS011;57063;51.406;-2.402;2024-02-14T12:07:25;3.53;;;0.80;;
48881;SDS011;57063;51.406;-2.402;2024-02-14T12:09:51;6.18;;;0.88;;
48881;SDS011;57063;51.406;-2.402;2024-02-14T12:12:20;4.88;;;0.93;;
48881;SDS011;57063;51.406;-2.402;2024-02-14T12:14:51;9.07;;;1.75;;
48881;SDS011;57063;51.406;-2.402;2024-02-14T12:20:27;3.70;;;0.65;;
48881;SDS011;57063;51.406;-2.402;2024-02-14T12:22:51;10.57;;;1.08;;
48881;SDS011;57063;51.406;-2.402;2024-02-14T12:25:18;3.08;;;0.90;;
48881;SDS011;57063;51.406;-2.402;2024-02-14T12:27:49;4.70;;;0.80;;
48881;SDS011;57063;51.406;-2.402;2024-02-14T12:32:42;3.83;;;1.20;;
48881;SDS011;57063;51.406;-2.402;2024-02-14T12:35:08;5.43;;;0.90;;
48881;SDS011;57063;51.406;-2.402;2024-02-14T12:37:33;6.22;;;0.70;;
48881;SDS011;57063;51.406;-2.402;2024-02-14T12:39:59;5.47;;;1.27;;
48881;SDS011;57063;51.406;-2.402;2024-02-14T12:42:25;10.15;;;1.65;;
48881;SDS011;57063;51.406;-2.402;2024-02-14T12:52:37;5.53;;;1.33;;
48881;SDS011;57063;51.406;-2.402;2024-02-14T12:55:03;7.43;;;2.05;;
48881;SDS011;57063;51.406;-2.402;2024-02-14T12:57:29;6.00;;;1.13;;
48881;SDS011;57063;51.406;-2.402;2024-02-14T12:59:55;8.35;;;1.40;;
48881;SDS011;57063;51.406;-2.402;2024-02-14T13:04:56;10.02;;;1.25;;
48881;SDS011;57063;51.406;-2.402;2024-02-14T13:07:21;5.75;;;0.95;;
48881;SDS011;57063;51.406;-2.402;2024-02-14T13:09:47;6.03;;;1.30;;
48881;SDS011;57063;51.406;-2.402;2024-02-14T13:12:13;6.15;;;1.38;;
48881;SDS011;57063;51.406;-2.402;2024-02-14T13:14:39;9.30;;;1.48;;
48881;SDS011;57063;51.406;-2.402;2024-02-14T13:17:05;7.35;;;1.45;;
48881;SDS011;57063;51.406;-2.402;2024-02-14T13:19:31;12.30;;;1.25;;
48881;SDS011;57063;51.406;-2.402;2024-02-14T13:21:57;5.75;;;1.02;;
48881;SDS011;57063;51.406;-2.402;2024-02-14T13:24:22;8.40;;;2.10;;
48881;SDS011;57063;51.406;-2.402;2024-02-14T13:26:48;8.60;;;1.13;;
48881;SDS011;57063;51.406;-2.402;2024-02-14T13:29:13;5.03;;;0.98;;
48881;SDS011;57063;51.406;-2.402;2024-02-14T13:31:39;8.20;;;1.55;;
48881;SDS011;57063;51.406;-2.402;2024-02-14T13:34:04;12.05;;;1.58;;
48881;SDS011;57063;51.406;-2.402;2024-02-14T13:36:30;8.32;;;1.23;;
48881;SDS011;57063;51.406;-2.402;2024-02-14T13:38:56;11.07;;;1.35;;
48881;SDS011;57063;51.406;-2.402;2024-02-14T13:41:49;9.73;;;2.17;;
48881;SDS011;57063;51.406;-2.402;2024-02-14T13:44:51;10.70;;;1.70;;
48881;SDS011;57063;51.406;-2.402;2024-02-14T13:50:34;5.13;;;1.15;;
48881;SDS011;57063;51.406;-2.402;2024-02-14T13:53:44;10.15;;;1.45;;
48881;SDS011;57063;51.406;-2.402;2024-02-14T14:02:43;10.57;;;2.28;;
48881;SDS011;57063;51.406;-2.402;2024-02-14T14:05:09;8.48;;;1.42;;
48881;SDS011;57063;51.406;-2.402;2024-02-14T14:07:38;5.90;;;1.25;;
48881;SDS011;57063;51.406;-2.402;2024-02-14T14:10:04;8.10;;;1.48;;
48881;SDS011;57063;51.406;-2.402;2024-02-14T14:12:31;8.93;;;1.55;;
48881;SDS011;57063;51.406;-2.402;2024-02-14T14:14:57;11.20;;;1.40;;
48881;SDS011;57063;51.406;-2.402;2024-02-14T14:17:23;11.77;;;1.35;;
48881;SDS011;57063;51.406;-2.402;2024-02-14T14:19:48;12.73;;;1.70;;
48881;SDS011;57063;51.406;-2.402;2024-02-14T14:22:14;13.55;;;2.75;;
48881;SDS011;57063;51.406;-2.402;2024-02-14T14:24:40;11.20;;;2.13;;
48881;SDS011;57063;51.406;-2.402;2024-02-14T14:29:31;16.58;;;3.28;;
48881;SDS011;57063;51.406;-2.402;2024-02-14T14:31:57;11.68;;;2.08;;
48881;SDS011;57063;51.406;-2.402;2024-02-14T14:34:27;7.95;;;1.88;;
48881;SDS011;57063;51.406;-2.402;2024-02-14T14:36:55;11.00;;;2.33;;
48881;SDS011;57063;51.406;-2.402;2024-02-14T14:39:20;11.07;;;2.53;;
48881;SDS011;57063;51.406;-2.402;2024-02-14T14:41:46;13.82;;;2.60;;
48881;SDS011;57063;51.406;-2.402;2024-02-14T14:44:11;10.13;;;2.05;;
48881;SDS011;57063;51.406;-2.402;2024-02-14T14:46:37;12.50;;;2.03;;
48881;SDS011;57063;51.406;-2.402;2024-02-14T14:49:08;15.82;;;2.40;;
48881;SDS011;57063;51.406;-2.402;2024-02-14T14:51:34;7.85;;;2.35;;
48881;SDS011;57063;51.406;-2.402;2024-02-14T14:54:01;12.95;;;1.83;;
48881;SDS011;57063;51.406;-2.402;2024-02-14T14:56:27;12.57;;;2.58;;
48881;SDS011;57063;51.406;-2.402;2024-02-14T14:58:52;13.82;;;2.25;;
48881;SDS011;57063;51.406;-2.402;2024-02-14T15:01:19;14.38;;;1.77;;
48881;SDS011;57063;51.406;-2.402;2024-02-14T15:03:45;12.43;;;2.25;;
48881;SDS011;57063;51.406;-2.402;2024-02-14T15:06:11;13.25;;;1.88;;
48881;SDS011;57063;51.406;-2.402;2024-02-14T15:08:38;6.97;;;2.00;;
48881;SDS011;57063;51.406;-2.402;2024-02-14T15:11:04;14.07;;;2.50;;
48881;SDS011;57063;51.406;-2.402;2024-02-14T15:13:30;11.65;;;2.20;;
48881;SDS011;57063;51.406;-2.402;2024-02-14T15:15:56;12.60;;;1.88;;
48881;SDS011;57063;51.406;-2.402;2024-02-14T15:18:25;12.05;;;2.00;;
48881;SDS011;57063;51.406;-2.402;2024-02-14T15:20:51;11.32;;;2.45;;
48881;SDS011;57063;51.406;-2.402;2024-02-14T15:23:17;11.80;;;2.45;;
48881;SDS011;57063;51.406;-2.402;2024-02-14T15:25:42;20.38;;;3.33;;
48881;SDS011;57063;51.406;-2.402;2024-02-14T15:28:08;10.57;;;2.17;;
48881;SDS011;57063;51.406;-2.402;2024-02-14T15:30:42;11.52;;;2.45;;
48881;SDS011;57063;51.406;-2.402;2024-02-14T15:33:26;18.17;;;2.53;;
48881;SDS011;57063;51.406;-2.402;2024-02-14T15:35:56;15.07;;;3.80;;
48881;SDS011;57063;51.406;-2.402;2024-02-14T15:38:24;18.20;;;2.65;;
48881;SDS011;57063;51.406;-2.402;2024-02-14T15:40:53;16.27;;;2.85;;
48881;SDS011;57063;51.406;-2.402;2024-02-14T15:43:28;14.57;;;2.60;;
48881;SDS011;57063;51.406;-2.402;2024-02-14T15:46:10;13.18;;;2.72;;
48881;SDS011;57063;51.406;-2.402;2024-02-14T15:48:50;12.98;;;2.20;;
48881;SDS011;57063;51.406;-2.402;2024-02-14T15:51:17;11.68;;;2.50;;
48881;SDS011;57063;51.406;-2.402;2024-02-14T15:54:07;15.10;;;3.30;;
48881;SDS011;57063;51.406;-2.402;2024-02-14T15:56:49;16.90;;;2.63;;
48881;SDS011;57063;51.406;-2.402;2024-02-14T15:59:23;8.23;;;1.70;;
48881;SDS011;57063;51.406;-2.402;2024-02-14T16:01:52;14.85;;;2.17;;
48881;SDS011;57063;51.406;-2.402;2024-02-14T16:04:21;9.82;;;2.10;;
48881;SDS011;57063;51.406;-2.402;2024-02-14T16:06:51;7.13;;;1.40;;
48881;SDS011;57063;51.406;-2.402;2024-02-14T16:09:39;6.40;;;1.15;;
48881;SDS011;57063;51.406;-2.402;2024-02-14T16:12:07;14.52;;;1.80;;
48881;SDS011;57063;51.406;-2.402;2024-02-14T16:14:32;6.05;;;1.95;;
48881;SDS011;57063;51.406;-2.402;2024-02-14T16:17:02;4.95;;;1.23;;
48881;SDS011;57063;51.406;-2.402;2024-02-14T16:19:37;6.07;;;1.40;;
48881;SDS011;57063;51.406;-2.402;2024-02-14T16:22:09;5.90;;;1.40;;